Time;durP1;ratioP1;P1;durP2;ratioP2;P2;SDS_P1;SDS_P2;PMS_P1;PMS_P2;Temp;Humidity;BMP_temperature;BMP_pressure;BME280_temperature;BME280_humidity;BME280_pressure;Samples;Min_cycle;Max_cycle;Signal;HPM_P1;HPM_P2
2022/01/19 00:02:18;;;;;;;;;;;14.60;49.60;;;;;;5091932;28;19912;-63
2022/01/19 00:04:43;;;;;;;;;;;14.60;49.60;;;;;;5094460;28;19908;-63
2022/01/19 00:07:09;;;;;;;;;;;14.60;49.60;;;;;;5128784;27;19908;-63
2022/01/19 00:09:34;;;;;;;;;;;14.60;49.60;;;;;;5094854;28;20039;-63
2022/01/19 00:12:00;;;;;;;;;;;14.60;49.60;;;;;;5111103;28;20368;-63
2022/01/19 00:14:26;;;;;;;;;;;14.50;49.70;;;;;;5128099;27;19908;-63
2022/01/19 00:16:52;;;;;;;;;;;14.50;49.70;;;;;;5128170;27;20408;-63
2022/01/19 00:19:17;;;;;;;;;;;14.50;49.90;;;;;;5093807;28;20015;-63
2022/01/19 00:21:42;;;;;;;;;;;14.50;49.90;;;;;;5095394;28;19908;-63
2022/01/19 00:24:08;;;;;;;;;;;14.50;49.90;;;;;;5127668;27;19915;-63
2022/01/19 00:26:33;;;;;;;;;;;14.50;50.00;;;;;;5093790;28;19915;-63
2022/01/19 00:29:00;;;;;;;;;;;14.50;49.90;;;;;;5094690;28;20280;-63
2022/01/19 00:31:25;;;;;;;;;;;14.50;49.80;;;;;;5093755;28;20003;-62
2022/01/19 00:33:50;;;;;;;;;;;14.40;49.90;;;;;;5094975;28;19966;-63
2022/01/19 00:36:16;;;;;;;;;;;14.40;49.90;;;;;;5094987;28;19908;-63
2022/01/19 00:38:41;;;;;;;;;;;14.50;49.90;;;;;;5094467;28;19908;-63
2022/01/19 00:41:07;;;;;;;;;;;14.50;49.70;;;;;;5095025;28;20030;-63
2022/01/19 00:43:35;;;;;;;;;;;14.40;49.80;;;;;;5094730;28;19915;-63
2022/01/19 00:46:01;;;;;;;;;;;14.40;49.90;;;;;;5093525;28;19908;-63
2022/01/19 00:48:27;;;;;;;;;;;14.40;50.00;;;;;;5093407;28;19935;-63
2022/01/19 00:50:52;;;;;;;;;;;14.40;49.90;;;;;;5093461;28;19912;-63
2022/01/19 00:53:18;;;;;;;;;;;14.40;49.80;;;;;;5093382;28;20277;-63
2022/01/19 00:55:43;;;;;;;;;;;14.40;49.80;;;;;;5092884;28;19909;-63
2022/01/19 00:58:08;;;;;;;;;;;14.40;49.90;;;;;;5094537;28;19908;-62
2022/01/19 01:00:34;;;;;;;;;;;14.40;50.10;;;;;;5093047;28;19908;-63
2022/01/19 01:02:59;;;;;;;;;;;14.40;50.20;;;;;;5127253;27;19968;-63
2022/01/19 01:05:25;;;;;;;;;;;14.30;50.10;;;;;;5092999;28;20011;-63
2022/01/19 01:07:50;;;;;;;;;;;14.40;50.20;;;;;;5094416;28;20307;-63
2022/01/19 01:10:16;;;;;;;;;;;14.40;50.20;;;;;;5092551;28;19920;-63
2022/01/19 01:12:48;;;;;;;;;;;14.40;50.10;;;;;;5093274;28;19915;-63
2022/01/19 01:16:18;;;;;;;;;;;14.40;50.00;;;;;;5100050;28;19908;-63
2022/01/19 01:18:22;;;;;;;;;;;14.40;50.00;;;;;;5088224;28;19923;-63
2022/01/19 01:20:49;;;;;;;;;;;14.40;49.90;;;;;;5126835;27;19908;-63
2022/01/19 01:23:14;;;;;;;;;;;14.40;49.90;;;;;;5092786;28;19908;-63
2022/01/19 01:25:40;;;;;;;;;;;14.40;49.80;;;;;;5092247;28;19919;-63
2022/01/19 01:28:05;;;;;;;;;;;14.40;49.90;;;;;;5084005;28;19913;-63
2022/01/19 01:30:31;;;;;;;;;;;14.40;49.80;;;;;;5073505;28;19920;-63
2022/01/19 01:32:56;;;;;;;;;;;14.40;49.90;;;;;;5073679;28;19915;-63
2022/01/19 01:35:21;;;;;;;;;;;14.40;49.90;;;;;;5073445;28;19908;-63
2022/01/19 01:37:47;;;;;;;;;;;14.40;49.80;;;;;;5073610;28;19918;-63
2022/01/19 01:40:13;;;;;;;;;;;14.40;49.80;;;;;;5071747;28;19908;-63
2022/01/19 01:42:38;;;;;;;;;;;14.40;49.90;;;;;;5073457;28;19912;-63
2022/01/19 01:45:04;;;;;;;;;;;14.40;50.00;;;;;;5072064;28;19955;-63
2022/01/19 01:47:32;;;;;;;;;;;14.40;50.00;;;;;;5072345;28;19920;-63
2022/01/19 01:55:07;;;;;;;;;;;14.40;50.00;;;;;;5072778;28;19919;-63
2022/01/19 01:57:33;;;;;;;;;;;14.40;49.90;;;;;;5082592;28;19908;-63
2022/01/19 01:59:58;;;;;;;;;;;14.40;49.80;;;;;;5093203;28;19908;-63
2022/01/19 02:02:24;;;;;;;;;;;14.40;49.90;;;;;;5126052;27;19957;-63
2022/01/19 02:04:49;;;;;;;;;;;14.40;49.80;;;;;;5108862;28;19918;-63
2022/01/19 02:07:32;;;;;;;;;;;14.40;49.80;;;;;;5093511;28;19912;-63
2022/01/19 02:10:03;;;;;;;;;;;14.40;49.90;;;;;;5091427;28;19916;-63
2022/01/19 02:25:53;;;;;;;;;;;14.20;50.20;;;;;;5092977;28;19908;-63
2022/01/19 02:31:55;;;;;;;;;;;14.30;50.10;;;;;;5092895;28;19923;-63
2022/01/19 02:41:46;;;;;;;;;;;14.60;49.00;;;;;;5091725;28;19915;-64
2022/01/19 02:44:16;;;;;;;;;;;14.70;48.80;;;;;;5092542;28;20439;-63
2022/01/19 02:49:25;;;;;;;;;;;14.90;48.70;;;;;;5091378;28;19939;-63
2022/01/19 02:51:51;;;;;;;;;;;14.90;48.60;;;;;;5091338;28;20364;-63
2022/01/19 02:54:18;;;;;;;;;;;14.90;48.40;;;;;;5090748;28;20326;-64
2022/01/19 02:56:48;;;;;;;;;;;15.00;48.20;;;;;;5108161;28;19912;-64
2022/01/19 02:59:18;;;;;;;;;;;15.10;48.10;;;;;;5124970;27;19930;-63
2022/01/19 03:09:41;;;;;;;;;;;15.20;47.90;;;;;;5092138;28;19973;-63
2022/01/19 03:12:07;;;;;;;;;;;15.20;47.90;;;;;;5091095;28;20006;-63
2022/01/19 03:14:33;;;;;;;;;;;15.20;47.90;;;;;;5092434;28;19991;-63
2022/01/19 03:16:58;;;;;;;;;;;15.20;47.80;;;;;;5091201;28;19970;-63
2022/01/19 03:19:26;;;;;;;;;;;15.20;47.90;;;;;;5092031;28;19916;-63
2022/01/19 03:21:51;;;;;;;;;;;15.10;47.90;;;;;;5091063;28;20349;-63
2022/01/19 03:24:17;;;;;;;;;;;15.10;48.00;;;;;;5090484;28;19958;-63
2022/01/19 03:26:42;;;;;;;;;;;15.10;48.00;;;;;;5092163;28;19909;-63
2022/01/19 03:29:08;;;;;;;;;;;15.10;48.10;;;;;;5092072;28;19919;-63
2022/01/19 03:31:33;;;;;;;;;;;15.00;48.10;;;;;;5090987;28;19919;-63
2022/01/19 03:33:59;;;;;;;;;;;15.00;48.20;;;;;;5090755;28;19909;-63
2022/01/19 03:36:24;;;;;;;;;;;15.00;48.20;;;;;;5074008;28;19993;-63
2022/01/19 03:38:50;;;;;;;;;;;15.00;48.30;;;;;;5093262;28;19950;-63
2022/01/19 03:41:15;;;;;;;;;;;15.00;48.30;;;;;;5094866;28;19912;-63
2022/01/19 03:43:41;;;;;;;;;;;14.90;48.30;;;;;;5094625;28;19908;-63
2022/01/19 03:46:13;;;;;;;;;;;14.90;48.40;;;;;;5128773;27;19915;-63
2022/01/19 03:49:09;;;;;;;;;;;14.90;48.50;;;;;;5101313;28;19912;-63
2022/01/19 03:51:24;;;;;;;;;;;14.90;48.50;;;;;;5094327;28;19919;-63
2022/01/19 03:53:50;;;;;;;;;;;14.80;48.50;;;;;;5094015;28;20673;-63
2022/01/19 03:56:15;;;;;;;;;;;14.80;48.60;;;;;;5094566;28;19915;-63
2022/01/19 03:58:41;;;;;;;;;;;14.80;48.60;;;;;;5095642;28;19912;-63
2022/01/19 04:01:07;;;;;;;;;;;14.80;48.70;;;;;;5094485;28;20376;-63
2022/01/19 04:06:18;;;;;;;;;;;14.80;48.50;;;;;;5101673;28;20006;-63
2022/01/19 04:08:43;;;;;;;;;;;14.80;49.10;;;;;;5128019;27;20334;-63
2022/01/19 04:11:09;;;;;;;;;;;14.90;48.60;;;;;;5095610;28;19912;-63
2022/01/19 04:13:57;;;;;;;;;;;14.90;48.50;;;;;;5094160;28;19918;-63
2022/01/19 04:16:19;;;;;;;;;;;14.80;48.50;;;;;;5095478;28;19914;-63
2022/01/19 04:18:45;;;;;;;;;;;14.80;48.60;;;;;;5095096;28;19916;-64
2022/01/19 04:21:10;;;;;;;;;;;14.80;48.70;;;;;;5095293;28;19916;-63
2022/01/19 04:23:36;;;;;;;;;;;14.80;48.60;;;;;;5094835;28;19961;-63
2022/01/19 04:26:03;;;;;;;;;;;14.80;48.60;;;;;;5095281;28;19915;-63
2022/01/19 04:28:28;;;;;;;;;;;14.80;48.50;;;;;;5094935;28;20019;-63
2022/01/19 04:30:54;;;;;;;;;;;14.80;48.40;;;;;;5095105;28;20035;-63
2022/01/19 04:33:23;;;;;;;;;;;14.80;48.40;;;;;;5095066;28;19908;-63
2022/01/19 04:35:51;;;;;;;;;;;14.80;48.50;;;;;;5111629;27;19934;-64
2022/01/19 04:47:05;;;;;;;;;;;14.90;48.40;;;;;;5095073;28;19957;-63
2022/01/19 05:07:59;;;;;;;;;;;14.90;48.10;;;;;;5101490;28;19904;-63
2022/01/19 05:15:49;;;;;;;;;;;14.90;48.10;;;;;;5094327;28;19916;-63
2022/01/19 05:18:16;;;;;;;;;;;14.90;48.20;;;;;;5109658;28;19917;-63
2022/01/19 05:20:42;;;;;;;;;;;14.90;48.20;;;;;;5093096;28;19963;-63
2022/01/19 05:23:07;;;;;;;;;;;14.90;48.20;;;;;;5109781;28;20376;-63
2022/01/19 05:25:33;;;;;;;;;;;14.90;48.20;;;;;;5093549;28;20292;-62
2022/01/19 05:27:58;;;;;;;;;;;14.90;48.30;;;;;;5109528;28;20287;-63
2022/01/19 05:30:23;;;;;;;;;;;14.90;48.30;;;;;;5093447;28;19954;-63
2022/01/19 05:32:49;;;;;;;;;;;14.90;48.30;;;;;;5093844;28;20001;-63
2022/01/19 05:35:14;;;;;;;;;;;14.90;48.20;;;;;;5093709;28;19961;-63
2022/01/19 05:37:40;;;;;;;;;;;14.90;48.20;;;;;;5093753;28;20011;-63
2022/01/19 05:40:06;;;;;;;;;;;14.90;48.20;;;;;;5093269;28;20370;-63
2022/01/19 05:42:31;;;;;;;;;;;14.90;48.20;;;;;;5092291;28;19912;-63
2022/01/19 05:44:57;;;;;;;;;;;14.90;48.20;;;;;;5092293;28;19912;-63
2022/01/19 05:47:22;;;;;;;;;;;14.90;48.20;;;;;;5092379;28;19954;-63
2022/01/19 05:49:48;;;;;;;;;;;14.90;48.20;;;;;;5093401;28;20422;-63
2022/01/19 05:52:13;;;;;;;;;;;14.90;48.20;;;;;;5093269;28;19999;-63
2022/01/19 05:54:39;;;;;;;;;;;14.90;48.10;;;;;;5091644;28;19908;-63
2022/01/19 05:57:04;;;;;;;;;;;14.90;48.10;;;;;;5074638;28;19916;-63
2022/01/19 05:59:30;;;;;;;;;;;14.90;48.10;;;;;;5071396;28;19908;-64
2022/01/19 06:01:55;;;;;;;;;;;14.90;48.10;;;;;;5072452;28;20052;-63
2022/01/19 06:04:21;;;;;;;;;;;14.90;48.10;;;;;;5054786;28;19916;-63
2022/01/19 06:06:49;;;;;;;;;;;14.90;48.70;;;;;;5072976;28;19915;-63
2022/01/19 06:09:32;;;;;;;;;;;14.90;48.10;;;;;;5072267;28;19944;-63
2022/01/19 06:11:58;;;;;;;;;;;14.90;48.10;;;;;;5072837;28;20351;-63
2022/01/19 06:14:23;;;;;;;;;;;14.90;48.10;;;;;;5072678;28;19959;-63
2022/01/19 06:16:49;;;;;;;;;;;14.90;48.10;;;;;;5072864;28;20384;-63
2022/01/19 06:19:18;;;;;;;;;;;14.90;48.00;;;;;;5087452;28;20296;-63
2022/01/19 06:21:43;;;;;;;;;;;14.90;48.00;;;;;;5091965;28;19981;-63
2022/01/19 06:24:08;;;;;;;;;;;14.90;48.70;;;;;;5092235;28;19912;-63
2022/01/19 06:26:35;;;;;;;;;;;14.90;47.90;;;;;;5092821;28;19918;-63
2022/01/19 06:29:02;;;;;;;;;;;15.00;47.90;;;;;;5108546;27;19908;-63
2022/01/19 06:31:27;;;;;;;;;;;15.00;47.90;;;;;;5091464;28;19967;-63
2022/01/19 06:33:52;;;;;;;;;;;15.00;47.90;;;;;;5091378;28;20486;-63
2022/01/19 06:36:18;;;;;;;;;;;15.00;47.90;;;;;;5092956;28;20303;-63
2022/01/19 06:38:43;;;;;;;;;;;14.90;47.90;;;;;;5090858;28;20341;-63
2022/01/19 06:41:09;;;;;;;;;;;14.90;47.90;;;;;;5074542;28;19987;-63
2022/01/19 06:43:34;;;;;;;;;;;14.90;48.00;;;;;;5092484;28;19957;-63
2022/01/19 06:46:00;;;;;;;;;;;15.00;48.00;;;;;;5092485;28;20432;-64
2022/01/19 06:48:26;;;;;;;;;;;14.90;47.90;;;;;;5092326;28;20368;-63
2022/01/19 06:50:51;;;;;;;;;;;15.00;48.00;;;;;;5091056;28;19918;-63
2022/01/19 06:53:17;;;;;;;;;;;14.90;48.00;;;;;;5092315;28;20360;-63
2022/01/19 06:55:42;;;;;;;;;;;14.90;48.00;;;;;;5092232;28;20368;-63
2022/01/19 06:58:08;;;;;;;;;;;14.90;48.00;;;;;;5092349;28;19916;-63
2022/01/19 07:00:33;;;;;;;;;;;14.90;48.10;;;;;;5107650;28;19913;-63
2022/01/19 07:02:59;;;;;;;;;;;14.90;48.00;;;;;;5092172;28;19962;-63
2022/01/19 07:05:24;;;;;;;;;;;14.90;47.90;;;;;;5092241;28;19952;-63
2022/01/19 07:07:52;;;;;;;;;;;14.90;48.00;;;;;;5090947;28;19937;-63
2022/01/19 07:10:17;;;;;;;;;;;14.90;48.00;;;;;;5091646;28;19912;-63
2022/01/19 07:12:43;;;;;;;;;;;14.90;48.00;;;;;;5091188;28;19962;-63
2022/01/19 07:15:09;;;;;;;;;;;14.90;48.00;;;;;;5096281;28;20379;-63
2022/01/19 07:17:35;;;;;;;;;;;14.90;47.90;;;;;;5096271;28;19909;-63
2022/01/19 07:20:01;;;;;;;;;;;14.90;47.90;;;;;;5096255;28;20376;-63
2022/01/19 07:22:26;;;;;;;;;;;14.90;47.90;;;;;;5096236;28;19919;-63
2022/01/19 07:24:52;;;;;;;;;;;14.90;47.90;;;;;;5095862;28;19915;-63
2022/01/19 07:27:17;;;;;;;;;;;14.90;47.80;;;;;;5079199;28;20391;-63
2022/01/19 07:29:43;;;;;;;;;;;14.90;47.80;;;;;;5074455;28;19916;-63
2022/01/19 07:32:10;;;;;;;;;;;15.00;47.90;;;;;;5074479;28;19951;-63
2022/01/19 07:34:35;;;;;;;;;;;15.00;47.90;;;;;;5074268;28;19912;-63
2022/01/19 07:37:02;;;;;;;;;;;15.00;47.80;;;;;;5075695;28;19916;-63
2022/01/19 07:39:28;;;;;;;;;;;15.00;47.80;;;;;;5075175;28;19913;-64
2022/01/19 07:41:55;;;;;;;;;;;15.00;47.70;;;;;;5074431;28;20007;-63
2022/01/19 07:44:21;;;;;;;;;;;15.00;47.70;;;;;;5075343;28;20004;-63
2022/01/19 07:46:48;;;;;;;;;;;15.00;47.70;;;;;;5075366;28;20022;-63
2022/01/19 07:49:13;;;;;;;;;;;15.00;47.70;;;;;;5074002;28;19982;-63
2022/01/19 07:51:39;;;;;;;;;;;14.90;47.70;;;;;;5074242;28;19912;-63
2022/01/19 07:54:04;;;;;;;;;;;14.90;47.80;;;;;;5074888;28;19915;-63
2022/01/19 07:56:30;;;;;;;;;;;14.90;47.80;;;;;;5076034;28;19908;-63
2022/01/19 07:58:55;;;;;;;;;;;15.00;47.90;;;;;;5128069;27;19908;-63
2022/01/19 08:01:21;;;;;;;;;;;15.00;47.80;;;;;;5093977;28;19912;-63
2022/01/19 08:03:46;;;;;;;;;;;15.00;47.70;;;;;;5093959;28;20008;-63
2022/01/19 08:06:11;;;;;;;;;;;15.00;47.70;;;;;;5095480;28;19919;-63
2022/01/19 08:08:37;;;;;;;;;;;15.00;47.70;;;;;;5110384;28;19909;-63
2022/01/19 08:11:02;;;;;;;;;;;15.00;47.60;;;;;;5094130;28;19919;-63
2022/01/19 08:13:28;;;;;;;;;;;15.00;47.60;;;;;;5094083;28;19970;-63
2022/01/19 08:15:53;;;;;;;;;;;15.00;47.70;;;;;;5095201;28;19999;-63
2022/01/19 08:18:19;;;;;;;;;;;15.00;47.70;;;;;;5093920;28;20010;-64
2022/01/19 08:20:44;;;;;;;;;;;15.00;47.70;;;;;;5076818;28;19985;-63
2022/01/19 08:23:10;;;;;;;;;;;15.00;47.60;;;;;;5095364;28;19908;-63
2022/01/19 08:25:35;;;;;;;;;;;15.00;47.60;;;;;;5094142;28;19943;-63
2022/01/19 08:28:01;;;;;;;;;;;15.00;47.70;;;;;;5093633;28;19951;-63
2022/01/19 08:30:26;;;;;;;;;;;15.00;47.70;;;;;;5110624;28;20376;-63
2022/01/19 08:32:52;;;;;;;;;;;15.00;47.60;;;;;;5110684;28;19919;-63
2022/01/19 08:35:17;;;;;;;;;;;15.00;47.70;;;;;;5094785;28;19912;-63
2022/01/19 08:37:43;;;;;;;;;;;14.90;47.60;;;;;;5093551;28;19912;-63
2022/01/19 08:40:09;;;;;;;;;;;14.90;47.60;;;;;;5094076;28;19917;-63
2022/01/19 08:42:36;;;;;;;;;;;15.00;47.70;;;;;;5093535;28;19915;-64
2022/01/19 08:45:05;;;;;;;;;;;15.00;47.70;;;;;;5094553;28;19973;-64
2022/01/19 08:47:31;;;;;;;;;;;14.90;47.60;;;;;;5094536;28;19908;-63
2022/01/19 08:49:56;;;;;;;;;;;14.90;47.60;;;;;;5094445;28;19918;-64
2022/01/19 08:52:22;;;;;;;;;;;14.90;47.70;;;;;;5094646;28;20368;-64
2022/01/19 08:54:47;;;;;;;;;;;14.90;47.70;;;;;;5094070;28;20338;-64
2022/01/19 08:57:13;;;;;;;;;;;14.90;47.70;;;;;;5094535;28;20379;-64
2022/01/19 08:59:38;;;;;;;;;;;14.90;47.70;;;;;;5093042;28;19916;-63
2022/01/19 09:02:04;;;;;;;;;;;14.90;47.60;;;;;;5093284;28;19908;-64
2022/01/19 09:04:30;;;;;;;;;;;15.00;47.60;;;;;;5093071;28;20287;-63
2022/01/19 09:06:57;;;;;;;;;;;15.00;47.70;;;;;;5110012;28;19908;-64
2022/01/19 09:09:23;;;;;;;;;;;15.00;47.60;;;;;;5093591;28;19916;-63
2022/01/19 09:11:48;;;;;;;;;;;15.00;47.60;;;;;;5094232;28;20365;-63
2022/01/19 09:14:14;;;;;;;;;;;14.90;47.60;;;;;;5093973;28;20389;-63
2022/01/19 09:16:39;;;;;;;;;;;14.90;47.60;;;;;;5092685;28;20269;-63
2022/01/19 09:19:06;;;;;;;;;;;15.00;47.60;;;;;;5109405;28;20376;-63
2022/01/19 09:21:31;;;;;;;;;;;15.00;47.60;;;;;;5094195;28;19908;-63
2022/01/19 09:23:57;;;;;;;;;;;15.00;47.60;;;;;;5092088;28;19908;-64
2022/01/19 09:26:22;;;;;;;;;;;14.90;47.60;;;;;;5092717;28;19908;-63
2022/01/19 09:28:48;;;;;;;;;;;14.90;47.60;;;;;;5092536;28;19941;-63
2022/01/19 09:31:16;;;;;;;;;;;14.90;47.70;;;;;;5093699;28;20007;-63
2022/01/19 09:33:43;;;;;;;;;;;14.90;47.90;;;;;;5093970;28;19908;-63
2022/01/19 09:36:29;;;;;;;;;;;14.80;48.00;;;;;;5091552;28;19917;-63
2022/01/19 09:38:54;;;;;;;;;;;14.80;48.00;;;;;;5092008;28;20387;-63
2022/01/19 09:41:20;;;;;;;;;;;14.90;48.00;;;;;;5093664;28;19908;-63
2022/01/19 09:43:45;;;;;;;;;;;14.80;47.80;;;;;;5092184;28;19908;-63
2022/01/19 09:46:11;;;;;;;;;;;14.90;47.80;;;;;;5092225;28;20006;-63
2022/01/19 09:48:36;;;;;;;;;;;14.90;47.80;;;;;;5075181;28;20316;-63
2022/01/19 09:51:02;;;;;;;;;;;14.90;47.80;;;;;;5075009;28;20053;-63
2022/01/19 09:53:28;;;;;;;;;;;14.90;47.70;;;;;;5092827;28;19908;-63
2022/01/19 09:55:53;;;;;;;;;;;14.90;47.80;;;;;;5092278;28;20288;-63
2022/01/19 09:58:21;;;;;;;;;;;14.90;47.90;;;;;;5093057;28;20239;-63
2022/01/19 10:00:47;;;;;;;;;;;14.80;47.80;;;;;;5091658;28;20357;-63
2022/01/19 10:03:20;;;;;;;;;;;14.80;47.90;;;;;;5092042;28;19908;-63
2022/01/19 10:05:55;;;;;;;;;;;14.80;47.90;;;;;;5091790;28;19909;-63
2022/01/19 10:08:30;;;;;;;;;;;14.90;47.90;;;;;;5092863;28;19995;-63
2022/01/19 10:11:06;;;;;;;;;;;14.90;47.80;;;;;;5091747;28;20369;-64
2022/01/19 10:19:14;;;;;;;;;;;14.90;47.70;;;;;;5091684;28;19961;-63
2022/01/19 10:21:54;;;;;;;;;;;15.00;47.80;;;;;;5092757;28;19930;-63
2022/01/19 10:24:19;;;;;;;;;;;15.00;47.70;;;;;;5091206;28;19931;-63
2022/01/19 10:26:45;;;;;;;;;;;15.00;47.80;;;;;;5091275;28;19908;-63
2022/01/19 10:29:13;;;;;;;;;;;14.90;47.80;;;;;;5092698;28;20364;-64
2022/01/19 10:31:40;;;;;;;;;;;14.90;47.80;;;;;;5091493;28;20376;-64
2022/01/19 10:34:18;;;;;;;;;;;14.90;47.70;;;;;;5091112;28;20355;-63
2022/01/19 10:36:48;;;;;;;;;;;14.90;47.70;;;;;;5091372;28;19912;-64
2022/01/19 10:39:14;;;;;;;;;;;14.90;47.80;;;;;;5092192;28;20329;-64
2022/01/19 10:41:58;;;;;;;;;;;14.90;47.80;;;;;;5091257;28;20061;-64
2022/01/19 10:44:36;;;;;;;;;;;14.90;47.80;;;;;;5092373;28;19912;-63
2022/01/19 10:47:02;;;;;;;;;;;14.90;47.80;;;;;;5092384;28;19908;-63
2022/01/19 10:49:28;;;;;;;;;;;14.90;47.70;;;;;;5091081;28;19915;-63
2022/01/19 10:51:57;;;;;;;;;;;15.00;47.80;;;;;;5091127;28;19919;-63
2022/01/19 10:54:25;;;;;;;;;;;14.90;47.70;;;;;;5091707;28;19915;-63
2022/01/19 10:56:54;;;;;;;;;;;14.90;47.70;;;;;;5091219;28;20383;-63
2022/01/19 10:59:21;;;;;;;;;;;14.90;47.80;;;;;;5090990;28;19970;-63
2022/01/19 11:01:54;;;;;;;;;;;14.90;47.80;;;;;;5091071;28;19908;-63
2022/01/19 11:04:35;;;;;;;;;;;14.90;47.70;;;;;;5090677;28;19923;-63
2022/01/19 11:07:03;;;;;;;;;;;14.90;47.80;;;;;;5090837;28;20388;-63
2022/01/19 11:09:30;;;;;;;;;;;14.90;47.80;;;;;;5091793;28;19916;-63
2022/01/19 11:11:56;;;;;;;;;;;14.90;47.80;;;;;;5090899;28;19908;-63
2022/01/19 11:14:24;;;;;;;;;;;14.90;47.80;;;;;;5090893;28;20362;-64
2022/01/19 11:16:51;;;;;;;;;;;14.90;47.70;;;;;;5090754;28;20288;-63
2022/01/19 11:19:17;;;;;;;;;;;14.90;47.80;;;;;;5091838;28;19919;-63
2022/01/19 11:21:58;;;;;;;;;;;14.90;47.70;;;;;;5091036;28;20322;-63
2022/01/19 11:24:24;;;;;;;;;;;14.90;47.70;;;;;;5073462;28;19919;-63
2022/01/19 11:26:49;;;;;;;;;;;14.90;47.70;;;;;;5092157;28;19908;-63
2022/01/19 11:29:18;;;;;;;;;;;14.90;47.70;;;;;;5091911;28;19908;-63
2022/01/19 11:31:44;;;;;;;;;;;14.90;47.70;;;;;;5089032;28;19950;-64
2022/01/19 11:34:09;;;;;;;;;;;14.80;47.80;;;;;;5090336;28;19908;-64
2022/01/19 11:36:36;;;;;;;;;;;14.80;48.10;;;;;;5098648;28;19943;-63
2022/01/19 11:39:12;;;;;;;;;;;14.80;48.20;;;;;;5089980;28;19946;-64
2022/01/19 11:41:51;;;;;;;;;;;14.80;48.20;;;;;;5091893;28;19920;-63
2022/01/19 11:44:18;;;;;;;;;;;14.90;48.10;;;;;;5088216;28;19918;-64
2022/01/19 11:46:45;;;;;;;;;;;15.20;47.70;;;;;;5075123;28;19920;-64
2022/01/19 11:49:11;;;;;;;;;;;15.50;47.20;;;;;;5085416;28;19919;-65
2022/01/19 11:51:38;;;;;;;;;;;15.80;46.80;;;;;;5075968;28;19931;-65
2022/01/19 11:54:22;;;;;;;;;;;16.00;46.40;;;;;;5086807;28;19924;-64
2022/01/19 11:57:04;;;;;;;;;;;16.20;45.80;;;;;;5099008;28;19915;-64
2022/01/19 11:59:36;;;;;;;;;;;16.40;45.40;;;;;;5119623;27;19962;-64
2022/01/19 12:02:20;;;;;;;;;;;16.60;45.10;;;;;;5083192;28;19994;-64
2022/01/19 12:04:46;;;;;;;;;;;16.70;44.90;;;;;;5088573;28;19998;-64
2022/01/19 12:07:38;;;;;;;;;;;16.80;44.80;;;;;;5091038;28;20062;-64
2022/01/19 12:10:04;;;;;;;;;;;16.90;44.70;;;;;;5087524;28;19916;-65
2022/01/19 12:12:34;;;;;;;;;;;16.90;44.50;;;;;;5093609;28;19912;-64
2022/01/19 12:15:04;;;;;;;;;;;17.00;44.30;;;;;;5085517;28;20048;-64
2022/01/19 12:17:51;;;;;;;;;;;17.10;44.30;;;;;;5098757;28;19912;-64
2022/01/19 12:20:36;;;;;;;;;;;17.10;44.20;;;;;;5113949;28;19957;-64
2022/01/19 12:23:20;;;;;;;;;;;17.20;44.20;;;;;;5098418;28;20354;-64
2022/01/19 12:25:51;;;;;;;;;;;17.20;44.10;;;;;;5080214;28;19991;-64
2022/01/19 12:28:36;;;;;;;;;;;17.20;44.00;;;;;;5119818;27;19912;-64
2022/01/19 12:31:21;;;;;;;;;;;17.30;44.10;;;;;;5104438;28;19920;-64
2022/01/19 12:34:02;;;;;;;;;;;17.30;44.00;;;;;;5100731;28;19908;-64
2022/01/19 12:36:43;;;;;;;;;;;17.30;44.10;;;;;;5094251;28;19919;-64
2022/01/19 12:39:24;;;;;;;;;;;17.20;44.30;;;;;;5076213;28;19947;-64
2022/01/19 12:41:55;;;;;;;;;;;17.00;44.40;;;;;;5085402;28;19935;-64
2022/01/19 12:44:39;;;;;;;;;;;16.90;44.50;;;;;;5086584;28;19912;-64
2022/01/19 12:47:27;;;;;;;;;;;16.90;44.80;;;;;;5083715;28;20353;-64
2022/01/19 12:50:19;;;;;;;;;;;16.80;44.90;;;;;;5078735;28;20304;-64
2022/01/19 12:52:45;;;;;;;;;;;16.80;44.90;;;;;;5105962;28;19915;-64
2022/01/19 12:55:12;;;;;;;;;;;16.80;45.00;;;;;;5110236;28;19908;-63
2022/01/19 12:57:37;;;;;;;;;;;16.80;45.10;;;;;;5093197;28;20287;-64
2022/01/19 13:00:10;;;;;;;;;;;16.80;45.10;;;;;;5094319;28;19912;-64
2022/01/19 13:02:35;;;;;;;;;;;16.80;45.10;;;;;;5093124;28;19915;-64
2022/01/19 13:05:05;;;;;;;;;;;16.80;45.20;;;;;;5077475;28;19912;-64
2022/01/19 13:07:34;;;;;;;;;;;16.80;45.20;;;;;;5089461;28;20365;-65
2022/01/19 13:10:04;;;;;;;;;;;16.70;45.20;;;;;;5081814;28;19965;-64
2022/01/19 13:12:41;;;;;;;;;;;16.70;45.20;;;;;;5094402;28;19908;-64
2022/01/19 13:15:06;;;;;;;;;;;16.70;45.40;;;;;;5099573;28;19908;-64
2022/01/19 13:17:39;;;;;;;;;;;16.60;45.40;;;;;;5092693;28;19908;-64
2022/01/19 13:20:11;;;;;;;;;;;16.60;45.30;;;;;;5093708;28;19919;-63
2022/01/19 13:22:49;;;;;;;;;;;16.60;45.40;;;;;;5092515;28;19994;-64
2022/01/19 13:25:18;;;;;;;;;;;16.60;45.40;;;;;;5092063;28;19915;-64
2022/01/19 13:27:44;;;;;;;;;;;16.60;45.40;;;;;;5080581;28;19912;-64
2022/01/19 13:30:13;;;;;;;;;;;16.60;45.50;;;;;;5073325;28;19940;-64
2022/01/19 13:32:39;;;;;;;;;;;16.60;45.50;;;;;;5073463;28;19912;-64
2022/01/19 13:35:05;;;;;;;;;;;16.60;45.40;;;;;;5072178;28;19909;-64
2022/01/19 13:37:31;;;;;;;;;;;16.60;45.50;;;;;;5078900;28;19957;-64
2022/01/19 13:40:07;;;;;;;;;;;16.60;45.40;;;;;;5091032;28;19966;-64
2022/01/19 13:42:34;;;;;;;;;;;16.60;45.40;;;;;;5099929;28;19909;-64
2022/01/19 13:45:08;;;;;;;;;;;16.60;45.40;;;;;;5079891;28;19913;-64
2022/01/19 13:47:33;;;;;;;;;;;16.60;45.40;;;;;;5089362;28;19912;-64
2022/01/19 13:49:59;;;;;;;;;;;16.60;45.40;;;;;;5087768;28;19962;-64
2022/01/19 13:52:24;;;;;;;;;;;16.60;45.30;;;;;;5092427;28;20020;-64
2022/01/19 13:54:50;;;;;;;;;;;16.60;45.30;;;;;;5093830;28;19919;-64
2022/01/19 13:57:25;;;;;;;;;;;16.60;45.20;;;;;;5106291;28;19924;-64
2022/01/19 13:59:50;;;;;;;;;;;16.60;45.10;;;;;;5094612;28;20325;-63
2022/01/19 14:02:18;;;;;;;;;;;16.70;45.20;;;;;;5093112;28;19909;-64
2022/01/19 14:04:50;;;;;;;;;;;16.60;45.10;;;;;;5093019;28;20431;-64
2022/01/19 14:07:16;;;;;;;;;;;16.70;45.20;;;;;;5077192;28;20154;-63
2022/01/19 14:09:41;;;;;;;;;;;16.60;45.20;;;;;;5113107;28;19908;-64
2022/01/19 14:12:10;;;;;;;;;;;16.60;45.20;;;;;;5113457;28;19908;-63
2022/01/19 14:14:41;;;;;;;;;;;16.70;45.30;;;;;;5092120;28;19980;-63
2022/01/19 14:17:09;;;;;;;;;;;16.70;45.30;;;;;;5054633;28;19909;-63
2022/01/19 14:19:41;;;;;;;;;;;16.70;45.30;;;;;;5089010;28;19923;-63
2022/01/19 14:22:07;;;;;;;;;;;16.70;45.30;;;;;;5083133;28;20062;-63
2022/01/19 14:24:42;;;;;;;;;;;16.70;45.30;;;;;;5075752;28;20008;-63
2022/01/19 14:27:13;;;;;;;;;;;16.70;45.30;;;;;;5092494;28;19915;-64
2022/01/19 14:29:57;;;;;;;;;;;16.70;45.30;;;;;;5092008;28;19986;-64
2022/01/19 14:32:36;;;;;;;;;;;16.70;45.30;;;;;;5092624;28;20275;-63
2022/01/19 14:35:01;;;;;;;;;;;16.70;45.20;;;;;;5091174;28;19923;-63
2022/01/19 14:37:27;;;;;;;;;;;16.70;45.20;;;;;;5085851;28;19920;-63
2022/01/19 14:39:54;;;;;;;;;;;16.70;45.20;;;;;;5093659;28;19960;-63
2022/01/19 14:42:20;;;;;;;;;;;16.70;45.20;;;;;;5091510;28;19962;-65
2022/01/19 14:44:58;;;;;;;;;;;16.80;45.20;;;;;;5091412;28;20374;-64
2022/01/19 14:47:39;;;;;;;;;;;16.80;45.20;;;;;;5075764;28;19950;-64
2022/01/19 14:50:37;;;;;;;;;;;16.80;45.20;;;;;;5091028;28;20384;-64
2022/01/19 14:53:03;;;;;;;;;;;16.70;45.10;;;;;;5069193;28;19912;-64
2022/01/19 14:55:29;;;;;;;;;;;16.70;45.10;;;;;;5085009;28;20003;-64
2022/01/19 14:57:55;;;;;;;;;;;16.80;45.20;;;;;;5093985;28;19912;-64
2022/01/19 15:00:21;;;;;;;;;;;16.80;45.20;;;;;;5081465;28;19955;-64
2022/01/19 15:02:49;;;;;;;;;;;16.70;45.20;;;;;;5093020;28;19996;-65
2022/01/19 15:05:15;;;;;;;;;;;16.80;45.20;;;;;;5092130;28;19919;-62
2022/01/19 15:07:40;;;;;;;;;;;16.80;45.20;;;;;;5090917;28;19946;-64
2022/01/19 15:10:07;;;;;;;;;;;16.70;45.20;;;;;;5099849;28;20024;-64
2022/01/19 15:12:33;;;;;;;;;;;16.70;45.20;;;;;;5075424;28;20052;-64
2022/01/19 15:15:01;;;;;;;;;;;16.70;45.20;;;;;;5091310;28;20010;-65
2022/01/19 15:17:27;;;;;;;;;;;16.80;45.30;;;;;;5089992;28;19908;-64
2022/01/19 15:19:52;;;;;;;;;;;16.80;45.30;;;;;;5089798;28;19939;-64
2022/01/19 15:22:18;;;;;;;;;;;16.80;45.30;;;;;;5090104;28;19912;-65
2022/01/19 15:24:43;;;;;;;;;;;16.80;45.40;;;;;;5096081;28;19923;-65
2022/01/19 15:27:08;;;;;;;;;;;16.80;45.40;;;;;;5089635;28;19920;-66
2022/01/19 15:29:34;;;;;;;;;;;16.70;45.40;;;;;;5091013;28;19912;-65
2022/01/19 15:32:00;;;;;;;;;;;16.70;45.40;;;;;;5089606;28;19919;-64
2022/01/19 15:34:25;;;;;;;;;;;16.80;45.60;;;;;;5091840;28;19912;-64
2022/01/19 15:36:51;;;;;;;;;;;16.70;45.40;;;;;;5095886;28;19947;-64
2022/01/19 15:39:16;;;;;;;;;;;16.80;45.40;;;;;;5099893;28;19911;-65
2022/01/19 15:41:42;;;;;;;;;;;16.80;45.40;;;;;;5093786;28;20284;-64
2022/01/19 15:44:07;;;;;;;;;;;16.80;45.50;;;;;;5091523;28;19919;-64